Startpagina
METAR-TAF:

METAR-TAF

Vliegvelden :

Productieplatform

Goeree Le, Nederland

breedte: 51-55-33N, lengte: 3-40-12E, hoogte: 19 m

Actueel weer

Dit bericht is 24 minuten geleden gemaakt, om 05:25 UTC
Wind 4 kt uit het oostzuidoosten, variërend tussen het oosten en het zuiden
Temperatuur 4°C
Vochtigheid 56%
Druk 1027 hPa
Zicht 10 km of meer

METAR: EHSC 070525Z AUTO 12004KT 080V170 9999 ///////// 04/M04 Q1027 W05/H6

Tijdstip: 06:49 (05:49 UTC)


TAF: ontbreekt

Waarnemingen en weersverwachtingen van meer dan 4000 vliegvelden (METAR en TAF).

De beschikbare stations zijn de gele en rode punten op de kaart.

Ga met uw muis naar het station om de naam te zien.

Klik dan om waarnemingen en weersverwachtingen te zien.

kaart wijzigen: klik op de groene knoppen met een zwart kruis om in te zoomen, op de groene knop met een streepje om uit te zoomen of op de groene pijlen voor aangrenzende kaarten.


METAR-TAF: